Time;durP1;ratioP1;P1;durP2;ratioP2;P2;SDS_P1;SDS_P2;PMS_P1;PMS_P2;Temp;Humidity;BMP_temperature;BMP_pressure;BME280_temperature;BME280_humidity;BME280_pressure;Samples;Min_cycle;Max_cycle;Signal;HPM_P1;HPM_P2
2021/12/15 00:00:23;;;;;;;8.37;2.00;;;26.70;99.90;;;;;;5068476;28;20199;-71
2021/12/15 00:02:52;;;;;;;7.27;2.20;;;26.40;99.90;;;;;;5070269;28;20183;-69
2021/12/15 00:05:23;;;;;;;8.00;1.83;;;26.30;99.90;;;;;;5070235;28;20198;-68
2021/12/15 00:08:03;;;;;;;4.70;1.93;;;26.50;99.90;;;;;;5067666;28;20648;-69
2021/12/15 00:10:31;;;;;;;8.90;2.43;;;26.80;99.90;;;;;;5071330;28;20211;-68
2021/12/15 00:12:59;;;;;;;11.80;4.57;;;26.60;99.90;;;;;;5071060;28;20258;-67
2021/12/15 00:15:28;;;;;;;7.80;4.00;;;26.80;99.90;;;;;;5068276;28;20238;-67
2021/12/15 00:17:57;;;;;;;14.50;2.97;;;26.90;99.90;;;;;;5072302;28;20224;-68
2021/12/15 00:20:28;;;;;;;6.50;2.07;;;26.90;99.90;;;;;;5069861;28;20249;-70
2021/12/15 00:22:56;;;;;;;9.87;2.23;;;26.80;99.90;;;;;;5064076;28;20183;-68
2021/12/15 00:25:28;;;;;;;9.13;2.20;;;27.00;99.90;;;;;;5071415;28;20191;-68
2021/12/15 00:27:55;;;;;;;10.50;3.37;;;26.90;99.90;;;;;;5066940;28;20183;-68
2021/12/15 00:30:23;;;;;;;7.80;2.70;;;27.00;99.90;;;;;;5073847;28;20179;-68
2021/12/15 00:32:51;;;;;;;11.30;2.60;;;27.00;99.90;;;;;;5067498;28;20656;-67
2021/12/15 00:35:19;;;;;;;12.83;2.37;;;26.80;99.90;;;;;;5074167;28;20182;-69
2021/12/15 00:37:47;;;;;;;9.23;2.00;;;26.90;99.90;;;;;;5057116;28;20206;-69
2021/12/15 00:40:16;;;;;;;10.20;2.27;;;27.10;99.90;;;;;;5073911;28;20262;-69
2021/12/15 00:42:45;;;;;;;9.80;2.80;;;27.00;99.90;;;;;;5074038;28;20191;-71
2021/12/15 00:45:13;;;;;;;12.30;4.37;;;27.30;99.90;;;;;;5069029;28;20325;-70
2021/12/15 00:47:41;;;;;;;7.43;2.63;;;27.50;99.90;;;;;;5071854;28;20219;-71
2021/12/15 00:50:11;;;;;;;11.90;2.40;;;27.50;99.90;;;;;;5070104;28;20183;-69
2021/12/15 00:52:40;;;;;;;11.17;2.30;;;27.70;99.90;;;;;;5070943;28;20631;-70
2021/12/15 00:55:11;;;;;;;10.83;2.17;;;27.90;99.90;;;;;;5071669;28;20219;-69
2021/12/15 00:57:38;;;;;;;9.40;2.33;;;27.90;99.90;;;;;;5073594;28;20250;-70
2021/12/15 01:00:09;;;;;;;7.33;2.07;;;27.80;99.90;;;;;;5073677;28;20252;-69
2021/12/15 01:02:37;;;;;;;6.67;2.10;;;28.00;99.90;;;;;;5073501;28;20176;-66
2021/12/15 01:05:07;;;;;;;14.40;2.37;;;28.10;99.90;;;;;;5073008;28;20187;-68
2021/12/15 01:07:34;;;;;;;6.83;1.83;;;28.00;99.90;;;;;;5072724;28;20225;-71
2021/12/15 01:10:03;;;;;;;8.47;2.47;;;28.20;99.90;;;;;;5073684;28;20175;-69
2021/12/15 01:14:29;;;;;;;13.93;2.73;;;28.30;99.90;;;;;;5073746;28;20187;-68
2021/12/15 01:21:08;;;;;;;12.63;2.43;;;28.40;99.90;;;;;;5068452;28;20214;-68
2021/12/15 01:23:35;;;;;;;5.57;1.80;;;28.40;99.90;;;;;;5071979;28;20183;-69
2021/12/15 01:26:09;;;;;;;11.70;2.53;;;28.00;99.90;;;;;;5072608;28;20360;-67
2021/12/15 01:28:36;;;;;;;11.53;2.57;;;27.90;99.90;;;;;;5070473;28;20644;-69
2021/12/15 01:31:05;;;;;;;7.67;2.90;;;28.20;99.90;;;;;;5070574;28;20183;-68
2021/12/15 01:33:34;;;;;;;12.00;2.70;;;28.40;99.90;;;;;;5071470;28;20186;-68
2021/12/15 01:36:03;;;;;;;7.33;2.70;;;28.80;99.90;;;;;;5070242;28;20194;-67
2021/12/15 01:38:33;;;;;;;9.23;2.47;;;28.80;99.90;;;;;;5069135;28;20536;-67
2021/12/15 01:41:02;;;;;;;9.07;2.80;;;28.90;99.90;;;;;;5071028;28;21764;-69
2021/12/15 01:49:17;;;;;;;10.73;2.80;;;28.80;99.90;;;;;;5068658;28;20194;-69
2021/12/15 01:51:44;;;;;;;5.17;2.53;;;29.20;99.90;;;;;;5071306;28;20274;-68
2021/12/15 01:54:12;;;;;;;12.40;2.47;;;29.10;99.90;;;;;;5071896;28;20227;-69
2021/12/15 01:56:41;;;;;;;8.23;2.77;;;29.20;99.90;;;;;;5070570;28;20214;-70
2021/12/15 01:59:10;;;;;;;7.60;2.13;;;29.20;99.90;;;;;;5069246;28;20259;-68
2021/12/15 02:01:37;;;;;;;9.23;2.00;;;29.50;99.90;;;;;;5071150;28;20188;-68
2021/12/15 02:04:38;;;;;;;12.43;3.57;;;29.50;99.90;;;;;;5071785;28;20186;-72
2021/12/15 02:07:19;;;;;;;7.60;2.10;;;29.10;99.90;;;;;;5053992;28;20230;-72
2021/12/15 02:12:37;;;;;;;8.83;2.50;;;29.40;99.80;;;;;;5072347;28;20193;-73
2021/12/15 02:15:15;;;;;;;11.23;2.50;;;29.50;99.30;;;;;;5062405;28;20195;-68
2021/12/15 02:17:43;;;;;;;9.70;2.40;;;29.50;99.10;;;;;;5069028;28;20175;-68
2021/12/15 02:21:03;;;;;;;7.27;3.17;;;29.60;99.10;;;;;;5072087;28;20175;-71
2021/12/15 02:23:38;;;;;;;6.17;2.70;;;29.50;98.80;;;;;;5061413;28;20535;-75
2021/12/15 02:26:21;;;;;;;6.97;2.20;;;29.60;98.80;;;;;;5067138;28;20204;-75
2021/12/15 02:28:55;;;;;;;6.60;2.33;;;29.80;98.30;;;;;;5069072;28;20241;-74
2021/12/15 02:31:39;;;;;;;8.00;2.50;;;29.90;98.10;;;;;;5066856;28;20185;-67
2021/12/15 02:39:22;;;;;;;11.20;2.77;;;29.80;97.50;;;;;;5071519;28;20194;-69
2021/12/15 02:41:49;;;;;;;7.10;1.83;;;29.90;97.50;;;;;;5070151;28;20194;-68
2021/12/15 02:44:19;;;;;;;7.07;2.03;;;30.10;97.20;;;;;;5069345;28;20232;-70
2021/12/15 02:46:50;;;;;;;6.60;2.00;;;30.10;97.10;;;;;;5069559;28;20296;-68
2021/12/15 02:49:20;;;;;;;10.50;3.57;;;29.90;97.30;;;;;;5066012;28;20610;-70
2021/12/15 02:51:52;;;;;;;8.03;2.73;;;30.00;97.20;;;;;;5070457;28;20665;-71
2021/12/15 02:54:21;;;;;;;6.40;2.40;;;30.30;96.50;;;;;;5068476;28;20231;-68
2021/12/15 02:56:51;;;;;;;11.30;2.03;;;30.40;96.90;;;;;;5066643;28;20194;-69
2021/12/15 02:59:40;;;;;;;12.23;2.50;;;30.60;96.60;;;;;;5071188;28;20201;-68
2021/12/15 03:02:35;;;;;;;6.85;2.05;;;30.70;95.80;;;;;;5070289;28;20186;-70
2021/12/15 03:05:17;;;;;;;6.03;2.33;;;30.50;96.10;;;;;;5068333;28;20179;-70
2021/12/15 03:07:55;;;;;;;6.13;1.83;;;30.40;96.10;;;;;;5071620;28;20236;-70
2021/12/15 03:15:55;;;;;;;3.75;1.70;;;30.80;95.50;;;;;;5070363;28;20181;-71
2021/12/15 03:18:26;;;;;;;6.87;1.73;;;30.80;95.20;;;;;;5070095;28;20660;-69
2021/12/15 03:21:14;;;;;;;6.72;1.90;;;31.00;94.60;;;;;;5070069;28;20595;-69
2021/12/15 03:24:03;;;;;;;8.82;1.77;;;31.00;94.50;;;;;;5048378;28;20597;-73
2021/12/15 03:26:50;;;;;;;9.43;2.13;;;31.10;94.50;;;;;;5067993;28;20561;-68
2021/12/15 03:33:28;;;;;;;5.53;1.85;;;31.50;93.80;;;;;;5070076;28;20202;-74
2021/12/15 03:35:47;;;;;;;7.07;1.70;;;31.10;94.00;;;;;;5070611;28;20190;-77
2021/12/15 03:38:24;;;;;;;7.32;1.98;;;31.00;94.00;;;;;;5071096;28;20189;-71
2021/12/15 03:40:58;;;;;;;4.88;1.55;;;31.10;94.20;;;;;;5067996;28;20191;-75
2021/12/15 03:43:55;;;;;;;8.20;1.67;;;31.50;93.50;;;;;;5041527;28;20213;-71
2021/12/15 03:46:22;;;;;;;9.90;2.17;;;30.90;93.80;;;;;;5065563;28;20660;-70
2021/12/15 03:48:49;;;;;;;4.80;1.45;;;30.70;94.10;;;;;;5065312;28;20199;-68
2021/12/15 03:51:17;;;;;;;6.00;1.65;;;30.90;94.10;;;;;;5064072;28;20540;-69
2021/12/15 03:53:45;;;;;;;7.60;1.88;;;31.30;93.70;;;;;;5067888;28;20315;-67
2021/12/15 03:56:15;;;;;;;4.65;1.35;;;31.60;93.60;;;;;;5067039;28;20204;-70
2021/12/15 03:58:42;;;;;;;5.63;1.17;;;31.40;93.10;;;;;;5062133;28;20175;-69
2021/12/15 04:01:19;;;;;;;6.28;1.30;;;31.20;93.40;;;;;;5071126;28;20186;-68
2021/12/15 04:03:49;;;;;;;6.30;1.55;;;31.10;93.10;;;;;;5073076;28;20222;-69
2021/12/15 04:06:29;;;;;;;6.50;1.50;;;31.10;93.30;;;;;;5073851;28;20264;-69
2021/12/15 04:08:58;;;;;;;5.85;1.40;;;31.00;93.40;;;;;;5073049;28;20190;-68
2021/12/15 04:11:33;;;;;;;7.32;1.80;;;31.10;93.10;;;;;;5070383;28;20664;-70
2021/12/15 04:14:04;;;;;;;4.10;1.42;;;30.90;93.30;;;;;;5074892;28;20273;-68
2021/12/15 04:19:01;;;;;;;3.65;1.85;;;31.00;93.10;;;;;;5073681;28;20556;-68
2021/12/15 04:21:29;;;;;;;9.90;1.48;;;31.00;93.20;;;;;;5069319;28;20186;-68
2021/12/15 04:24:01;;;;;;;5.05;1.40;;;31.20;93.20;;;;;;5074630;28;20585;-67
2021/12/15 04:26:28;;;;;;;7.20;2.05;;;31.30;92.90;;;;;;5071254;28;20214;-68
2021/12/15 04:28:56;;;;;;;7.88;1.60;;;31.50;93.00;;;;;;5074570;28;20579;-68
2021/12/15 04:31:27;;;;;;;8.18;1.65;;;31.70;92.60;;;;;;5071387;28;20167;-70
2021/12/15 04:33:56;;;;;;;7.47;1.38;;;31.60;92.60;;;;;;5073535;28;20179;-70
2021/12/15 04:36:30;;;;;;;7.00;1.45;;;31.30;92.60;;;;;;5071246;28;20707;-67
2021/12/15 04:38:59;;;;;;;4.75;1.52;;;31.10;92.80;;;;;;5082722;28;20192;-68
2021/12/15 04:41:27;;;;;;;7.82;1.52;;;31.40;92.80;;;;;;5073111;28;20638;-68
2021/12/15 04:43:57;;;;;;;8.82;1.55;;;31.60;92.60;;;;;;5078279;28;20179;-69
2021/12/15 04:46:32;;;;;;;6.47;1.25;;;31.50;92.40;;;;;;5071482;28;20625;-68
2021/12/15 04:49:01;;;;;;;8.85;1.10;;;31.60;92.10;;;;;;5073930;28;20178;-67
2021/12/15 04:51:30;;;;;;;4.47;1.10;;;31.10;92.20;;;;;;5074209;28;20186;-69
2021/12/15 04:53:58;;;;;;;6.10;1.08;;;31.50;92.50;;;;;;5074113;28;20223;-68
2021/12/15 04:56:26;;;;;;;5.10;1.23;;;32.30;91.90;;;;;;5071825;28;20262;-68
2021/12/15 04:58:55;;;;;;;6.97;1.13;;;32.80;91.70;;;;;;5073149;28;20210;-69
2021/12/15 05:01:24;;;;;;;7.80;1.33;;;32.90;91.10;;;;;;5073468;28;20175;-69
2021/12/15 05:03:51;;;;;;;4.20;1.13;;;32.50;91.00;;;;;;5074437;28;20175;-68
2021/12/15 05:06:19;;;;;;;4.97;1.25;;;32.20;91.30;;;;;;5073688;28;20681;-68
2021/12/15 05:08:46;;;;;;;6.10;1.38;;;32.40;91.20;;;;;;5073804;28;20719;-68
2021/12/15 05:11:14;;;;;;;5.68;1.20;;;32.70;90.80;;;;;;5073404;28;20176;-70
2021/12/15 05:13:41;;;;;;;7.05;1.70;;;32.90;90.60;;;;;;5073998;28;20606;-69
2021/12/15 05:16:09;;;;;;;7.43;1.33;;;33.50;90.40;;;;;;5073892;28;20183;-69
2021/12/15 05:18:36;;;;;;;5.10;1.13;;;33.30;90.30;;;;;;5082766;28;20241;-67
2021/12/15 05:21:06;;;;;;;4.45;1.30;;;33.30;90.10;;;;;;5073561;28;20524;-68
2021/12/15 05:23:34;;;;;;;7.38;1.45;;;33.50;89.20;;;;;;5077289;28;20171;-68
2021/12/15 05:26:03;;;;;;;4.90;1.40;;;33.30;90.00;;;;;;5073261;28;20646;-67
2021/12/15 05:28:31;;;;;;;8.45;2.05;;;33.90;89.30;;;;;;5079800;28;20229;-69
2021/12/15 05:30:58;;;;;;;4.25;1.42;;;33.70;88.30;;;;;;5073292;28;20175;-69
2021/12/15 05:33:26;;;;;;;5.90;1.50;;;33.60;88.20;;;;;;5077332;28;20233;-67
2021/12/15 05:35:56;;;;;;;6.05;1.13;;;33.30;87.60;;;;;;5074763;28;20183;-68
2021/12/15 05:38:25;;;;;;;5.10;1.40;;;32.70;87.80;;;;;;5076361;28;20754;-68
2021/12/15 05:40:53;;;;;;;5.80;1.55;;;31.90;88.20;;;;;;5071987;28;20179;-68
2021/12/15 05:43:20;;;;;;;7.15;1.77;;;31.70;89.30;;;;;;5073294;28;20215;-67
2021/12/15 05:45:50;;;;;;;6.47;1.58;;;31.60;88.50;;;;;;5073107;28;20178;-69
2021/12/15 05:48:18;;;;;;;3.88;1.20;;;31.10;90.20;;;;;;5073347;28;20171;-69
2021/12/15 05:50:49;;;;;;;6.90;1.85;;;30.50;90.20;;;;;;5073691;28;20641;-69
2021/12/15 05:53:17;;;;;;;7.22;1.40;;;30.10;91.10;;;;;;5080790;28;20185;-68
2021/12/15 05:55:45;;;;;;;9.63;2.03;;;30.30;91.10;;;;;;5072507;28;20222;-68
2021/12/15 05:58:13;;;;;;;5.22;1.10;;;31.40;90.60;;;;;;5073252;28;20190;-70
2021/12/15 06:00:43;;;;;;;7.22;1.30;;;32.20;89.30;;;;;;5072666;28;20300;-69
2021/12/15 06:03:11;;;;;;;3.28;1.38;;;32.70;88.40;;;;;;5074453;28;20229;-69
2021/12/15 06:05:38;;;;;;;6.43;1.08;;;31.60;88.70;;;;;;5073316;28;20241;-69
2021/12/15 06:08:07;;;;;;;4.28;1.20;;;30.60;89.70;;;;;;5074346;28;20191;-67
2021/12/15 06:10:36;;;;;;;5.80;1.02;;;30.00;90.70;;;;;;5072432;28;20243;-71
2021/12/15 06:13:07;;;;;;;6.40;1.30;;;30.20;90.80;;;;;;5073459;28;20207;-70
2021/12/15 06:15:34;;;;;;;6.20;1.00;;;30.70;90.40;;;;;;5072492;28;20194;-67
2021/12/15 06:18:06;;;;;;;5.63;1.43;;;30.50;90.50;;;;;;5076611;28;20182;-67
2021/12/15 06:20:34;;;;;;;6.95;1.38;;;30.70;91.00;;;;;;5074180;28;20175;-72
2021/12/15 06:23:08;;;;;;;5.97;1.20;;;31.30;90.60;;;;;;5068980;28;20194;-68
2021/12/15 06:25:36;;;;;;;4.57;1.60;;;31.20;90.60;;;;;;5077688;28;20206;-67
2021/12/15 06:28:04;;;;;;;7.90;1.60;;;31.40;90.60;;;;;;5070255;28;20198;-67
2021/12/15 06:30:32;;;;;;;3.97;1.33;;;31.10;90.60;;;;;;5071639;28;20211;-68
2021/12/15 06:33:00;;;;;;;6.38;1.08;;;30.50;91.20;;;;;;5071429;28;20637;-67
2021/12/15 06:35:28;;;;;;;3.97;1.30;;;31.30;91.00;;;;;;5071365;28;20169;-67
2021/12/15 06:37:55;;;;;;;4.32;1.25;;;31.60;90.80;;;;;;5068891;28;20183;-68
2021/12/15 06:40:22;;;;;;;7.13;1.80;;;31.60;90.50;;;;;;5068917;28;20180;-69
2021/12/15 06:42:50;;;;;;;8.90;1.40;;;32.50;90.20;;;;;;5070433;28;20266;-68
2021/12/15 06:45:22;;;;;;;5.03;1.33;;;32.60;89.80;;;;;;5070995;28;20257;-68
2021/12/15 06:59:12;;;;;;;7.78;1.60;;;31.20;90.60;;;;;;5071737;28;20217;-71
2021/12/15 07:01:39;;;;;;;9.32;1.58;;;31.30;90.70;;;;;;5067143;28;20183;-71
2021/12/15 07:04:07;;;;;;;9.05;1.83;;;31.70;90.40;;;;;;5069954;28;20266;-69
2021/12/15 07:06:34;;;;;;;3.55;1.23;;;31.80;90.50;;;;;;5071619;28;20271;-68
2021/12/15 07:09:02;;;;;;;2.90;1.55;;;31.70;90.50;;;;;;5075605;28;20358;-68
2021/12/15 07:11:29;;;;;;;6.95;1.20;;;31.60;90.70;;;;;;5052639;28;20225;-69
2021/12/15 07:13:57;;;;;;;6.15;1.70;;;31.80;90.60;;;;;;5070763;28;20234;-67
2021/12/15 07:16:25;;;;;;;10.02;1.52;;;31.40;90.60;;;;;;5075108;28;20175;-68
2021/12/15 07:19:04;;;;;;;9.65;1.90;;;31.00;91.00;;;;;;5065207;28;20923;-69
2021/12/15 07:21:34;;;;;;;10.88;2.20;;;30.50;91.50;;;;;;5069445;28;20174;-69
2021/12/15 07:24:02;;;;;;;5.30;1.92;;;30.30;91.90;;;;;;5070542;28;20210;-70
2021/12/15 07:26:30;;;;;;;6.18;2.33;;;29.80;92.60;;;;;;5072292;28;20215;-69
2021/12/15 07:28:57;;;;;;;12.45;1.70;;;29.80;92.90;;;;;;5073952;28;20179;-68
2021/12/15 07:31:25;;;;;;;6.90;1.93;;;29.60;93.10;;;;;;5076276;28;20199;-68
2021/12/15 07:33:53;;;;;;;9.77;1.83;;;29.60;93.30;;;;;;5070782;28;20222;-68
2021/12/15 07:36:20;;;;;;;8.03;1.70;;;29.50;93.40;;;;;;5071260;28;20201;-69
2021/12/15 07:38:47;;;;;;;5.70;1.40;;;29.30;93.60;;;;;;5066774;28;20258;-69
2021/12/15 07:41:36;;;;;;;6.90;1.43;;;29.10;93.80;;;;;;5072589;28;20817;-71
2021/12/15 07:44:04;;;;;;;8.87;2.03;;;28.80;94.10;;;;;;5069338;28;20183;-70
2021/12/15 07:46:32;;;;;;;6.77;1.53;;;28.60;94.60;;;;;;5071088;28;20214;-68
2021/12/15 07:48:59;;;;;;;7.53;1.80;;;28.40;95.00;;;;;;5071037;28;20187;-69
2021/12/15 07:51:26;;;;;;;6.07;1.70;;;28.40;95.20;;;;;;5071527;28;20210;-68
2021/12/15 07:53:54;;;;;;;6.87;2.20;;;28.20;95.40;;;;;;5071204;28;20222;-69
2021/12/15 07:56:21;;;;;;;6.67;1.63;;;28.20;95.70;;;;;;5074671;28;20698;-70
2021/12/15 07:58:48;;;;;;;14.43;6.20;;;28.00;95.90;;;;;;5066590;28;20233;-70
2021/12/15 08:01:18;;;;;;;13.30;3.33;;;27.80;96.10;;;;;;5067558;28;20179;-69
2021/12/15 08:03:51;;;;;;;9.60;2.00;;;27.70;96.40;;;;;;5071124;28;20187;-69
2021/12/15 08:06:19;;;;;;;9.73;2.50;;;27.60;96.60;;;;;;5068108;28;20701;-70
2021/12/15 08:08:46;;;;;;;13.67;2.00;;;27.50;96.90;;;;;;5071376;28;20190;-70
2021/12/15 08:11:14;;;;;;;9.50;2.13;;;27.50;97.00;;;;;;5070907;28;20236;-68
2021/12/15 08:13:42;;;;;;;8.90;2.30;;;27.40;97.10;;;;;;5070756;28;20666;-69
2021/12/15 08:16:09;;;;;;;11.23;2.13;;;27.30;97.40;;;;;;5071063;28;20261;-70
2021/12/15 08:18:37;;;;;;;7.60;1.90;;;27.20;97.80;;;;;;5071415;28;20176;-69
2021/12/15 08:21:05;;;;;;;8.97;2.00;;;27.10;97.70;;;;;;5071047;28;20183;-70
2021/12/15 08:23:33;;;;;;;7.73;1.93;;;27.20;97.80;;;;;;5065139;28;20183;-69
2021/12/15 08:26:01;;;;;;;7.43;3.50;;;27.10;97.70;;;;;;5071078;28;20246;-68
2021/12/15 08:28:28;;;;;;;7.77;5.30;;;27.00;98.10;;;;;;5069680;28;20258;-70
2021/12/15 08:30:56;;;;;;;7.00;2.07;;;26.90;98.40;;;;;;5070527;28;20194;-68
2021/12/15 08:33:24;;;;;;;7.87;2.23;;;26.80;98.70;;;;;;5072486;28;20523;-68
2021/12/15 08:36:11;;;;;;;10.93;1.97;;;26.80;98.90;;;;;;5070762;28;20601;-67
2021/12/15 08:38:42;;;;;;;7.33;2.00;;;26.80;99.20;;;;;;5071853;28;20194;-68
2021/12/15 08:41:13;;;;;;;6.30;2.20;;;26.80;99.30;;;;;;5070769;28;20648;-69
2021/12/15 08:43:41;;;;;;;10.27;2.87;;;26.70;99.50;;;;;;5075614;28;20605;-70
2021/12/15 08:46:16;;;;;;;8.27;3.00;;;26.70;99.60;;;;;;5073823;28;20207;-68
2021/12/15 08:48:45;;;;;;;8.20;2.37;;;26.70;99.80;;;;;;5078868;28;20529;-69
2021/12/15 08:51:15;;;;;;;10.67;2.17;;;26.70;99.90;;;;;;5074765;28;20621;-68
2021/12/15 08:53:44;;;;;;;10.60;2.77;;;26.70;99.90;;;;;;5078265;28;20278;-71
2021/12/15 08:56:14;;;;;;;6.13;1.90;;;26.60;99.90;;;;;;5072953;28;20214;-68
2021/12/15 08:58:42;;;;;;;8.60;2.03;;;26.50;99.50;;;;;;5082701;28;20187;-67
2021/12/15 09:01:09;;;;;;;7.60;1.90;;;26.80;98.50;;;;;;5075118;28;20273;-69
2021/12/15 09:03:38;;;;;;;8.40;2.00;;;26.80;99.00;;;;;;5077152;28;20195;-71
2021/12/15 09:06:06;;;;;;;8.67;2.03;;;26.50;99.90;;;;;;5077215;28;20294;-71
2021/12/15 09:08:33;;;;;;;9.43;1.50;;;25.90;99.90;;;;;;5080037;28;20191;-70
2021/12/15 09:11:05;;;;;;;8.87;1.50;;;25.00;99.90;;;;;;5078307;28;20179;-69
2021/12/15 09:13:36;;;;;;;6.23;1.53;;;24.50;99.90;;;;;;5075295;28;20180;-69
2021/12/15 09:16:07;;;;;;;6.40;1.93;;;24.00;99.90;;;;;;5082741;28;20644;-70
2021/12/15 09:18:35;;;;;;;8.17;1.60;;;23.80;99.90;;;;;;5075408;28;20225;-70
2021/12/15 09:21:05;;;;;;;4.17;1.70;;;23.60;99.90;;;;;;5075482;28;20538;-70
2021/12/15 09:23:33;;;;;;;12.13;2.10;;;23.40;99.90;;;;;;5076693;28;20640;-70
2021/12/15 09:26:01;;;;;;;5.20;1.60;;;23.30;99.90;;;;;;5072017;28;20253;-71
2021/12/15 09:28:30;;;;;;;4.07;1.83;;;23.20;99.90;;;;;;5075845;28;20568;-71
2021/12/15 09:30:57;;;;;;;5.23;1.57;;;23.10;99.90;;;;;;5077108;28;20183;-69
2021/12/15 09:33:29;;;;;;;4.53;1.77;;;23.20;99.90;;;;;;5080650;28;20628;-68
2021/12/15 09:35:57;;;;;;;9.47;2.50;;;22.90;99.90;;;;;;5079292;28;20595;-69
2021/12/15 09:38:25;;;;;;;12.27;2.87;;;22.90;99.90;;;;;;5081205;28;20171;-69
2021/12/15 09:40:57;;;;;;;9.97;2.80;;;23.00;99.90;;;;;;5077954;28;20720;-69
2021/12/15 09:43:28;;;;;;;14.70;3.00;;;22.90;99.90;;;;;;5074444;28;20175;-68
2021/12/15 09:47:07;;;;;;;20.67;4.43;;;22.90;99.90;;;;;;5074174;28;20182;-67
2021/12/15 10:02:33;;;;;;;36.47;5.67;;;22.20;99.90;;;;;;5071468;28;20273;-67
2021/12/15 10:18:44;;;;;;;20.83;3.80;;;21.70;99.90;;;;;;5075607;28;20189;-67
2021/12/15 10:21:28;;;;;;;19.10;4.27;;;21.70;99.90;;;;;;5071807;28;20191;-69
2021/12/15 10:23:56;;;;;;;15.20;3.53;;;21.70;99.90;;;;;;5062881;28;20183;-68
2021/12/15 10:26:25;;;;;;;17.53;3.97;;;21.60;99.90;;;;;;5071172;28;20211;-69
2021/12/15 10:28:53;;;;;;;19.30;3.40;;;21.70;99.90;;;;;;5072955;28;20210;-69
2021/12/15 10:31:24;;;;;;;16.00;3.20;;;21.70;99.90;;;;;;5070914;28;20240;-68
2021/12/15 10:33:56;;;;;;;16.27;3.70;;;21.70;99.90;;;;;;5066366;28;20215;-68
2021/12/15 10:36:33;;;;;;;17.47;3.23;;;21.80;99.90;;;;;;5071890;28;20197;-70
2021/12/15 10:39:09;;;;;;;17.00;3.87;;;21.70;99.90;;;;;;5073016;28;20179;-69
2021/12/15 10:41:42;;;;;;;20.23;3.73;;;21.80;99.90;;;;;;5071318;28;20171;-69
2021/12/15 10:44:24;;;;;;;17.30;3.93;;;21.90;99.90;;;;;;5072287;28;20175;-68
2021/12/15 10:47:03;;;;;;;20.53;4.10;;;21.70;99.90;;;;;;5070862;28;20536;-67
2021/12/15 10:49:34;;;;;;;23.07;3.63;;;21.70;99.90;;;;;;5078138;28;20270;-68
2021/12/15 10:52:05;;;;;;;23.37;4.03;;;21.70;99.90;;;;;;5072299;28;20179;-69
2021/12/15 10:54:46;;;;;;;15.73;3.67;;;21.60;99.90;;;;;;5071396;28;20218;-67
2021/12/15 10:57:41;;;;;;;31.97;4.80;;;21.70;99.90;;;;;;5071280;28;20207;-67
2021/12/15 11:00:12;;;;;;;20.47;4.30;;;21.70;99.90;;;;;;5071281;28;20175;-68
2021/12/15 11:02:40;;;;;;;26.23;4.53;;;21.80;99.90;;;;;;5071296;28;20187;-68
2021/12/15 11:05:15;;;;;;;30.23;5.00;;;21.80;99.90;;;;;;5070923;28;20221;-66
2021/12/15 11:07:54;;;;;;;30.70;4.63;;;21.80;99.90;;;;;;5055804;28;20214;-69
2021/12/15 11:10:28;;;;;;;21.43;4.97;;;21.70;99.90;;;;;;5071065;28;20655;-69
2021/12/15 11:13:10;;;;;;;24.30;4.17;;;21.80;99.90;;;;;;5075398;28;20244;-69
2021/12/15 11:15:42;;;;;;;27.57;4.60;;;21.80;99.90;;;;;;5074521;28;20206;-69
2021/12/15 11:18:17;;;;;;;33.70;5.50;;;21.80;99.90;;;;;;5070808;28;20266;-70
2021/12/15 11:20:48;;;;;;;29.20;5.10;;;21.80;99.90;;;;;;5071485;28;20532;-69
2021/12/15 11:23:18;;;;;;;31.53;6.53;;;21.80;99.90;;;;;;5071270;28;20187;-70
2021/12/15 11:25:50;;;;;;;29.67;5.07;;;21.90;99.90;;;;;;5071676;28;20179;-69
2021/12/15 11:28:43;;;;;;;25.37;4.87;;;21.90;99.90;;;;;;5071844;28;20194;-69
2021/12/15 11:31:21;;;;;;;33.13;5.83;;;21.80;99.90;;;;;;5071026;28;20195;-66
2021/12/15 11:34:00;;;;;;;37.53;5.40;;;21.90;99.90;;;;;;5064305;28;20270;-68
2021/12/15 11:36:34;;;;;;;29.47;4.90;;;21.90;99.90;;;;;;5071264;28;20186;-68
2021/12/15 11:39:16;;;;;;;39.63;6.30;;;21.90;99.90;;;;;;5071359;28;20191;-68
2021/12/15 11:41:55;;;;;;;36.00;5.67;;;21.90;99.90;;;;;;5070262;28;20194;-69
2021/12/15 11:44:27;;;;;;;38.50;5.73;;;21.90;99.90;;;;;;5071483;28;20209;-68
2021/12/15 11:47:00;;;;;;;32.23;5.27;;;21.90;99.90;;;;;;5070875;28;20213;-68
2021/12/15 11:49:37;;;;;;;29.00;5.23;;;21.90;99.90;;;;;;5071486;28;20198;-68
2021/12/15 11:52:08;;;;;;;31.93;6.10;;;21.90;99.90;;;;;;5071437;28;20231;-68
2021/12/15 11:54:53;;;;;;;32.43;4.23;;;21.90;99.90;;;;;;5070946;28;20313;-68
2021/12/15 11:57:27;;;;;;;33.63;6.23;;;21.90;99.90;;;;;;5068538;28;20678;-68
2021/12/15 12:00:15;;;;;;;22.70;5.13;;;21.90;99.90;;;;;;5070637;28;20537;-68
2021/12/15 12:02:48;;;;;;;36.37;6.37;;;21.90;99.90;;;;;;5070930;28;20205;-68
2021/12/15 12:05:20;;;;;;;32.90;5.50;;;21.90;99.90;;;;;;5071515;28;20179;-68
2021/12/15 12:07:54;;;;;;;29.53;5.17;;;21.90;99.90;;;;;;5070676;28;20301;-68
2021/12/15 12:10:34;;;;;;;27.40;4.57;;;21.90;99.90;;;;;;5069910;28;20175;-68
2021/12/15 12:13:10;;;;;;;28.53;4.83;;;21.90;99.90;;;;;;5069463;28;20187;-68
2021/12/15 12:15:43;;;;;;;24.20;4.77;;;22.00;99.90;;;;;;5070491;28;20514;-67
2021/12/15 12:18:14;;;;;;;33.57;6.23;;;22.00;99.90;;;;;;5070218;28;20186;-68
2021/12/15 12:20:48;;;;;;;23.93;5.53;;;22.00;99.90;;;;;;5064613;28;20196;-68
2021/12/15 12:23:19;;;;;;;26.60;5.33;;;22.00;99.90;;;;;;5074482;28;20187;-68
2021/12/15 12:25:53;;;;;;;28.60;5.63;;;21.90;99.90;;;;;;5072503;28;20262;-68
2021/12/15 12:28:28;;;;;;;26.17;5.47;;;21.90;99.90;;;;;;5074103;28;20210;-68
2021/12/15 12:31:03;;;;;;;24.97;4.70;;;21.90;99.90;;;;;;5072512;28;20551;-69
2021/12/15 12:33:31;;;;;;;24.90;3.80;;;21.90;99.90;;;;;;5072318;28;20564;-68
2021/12/15 12:36:03;;;;;;;21.23;4.10;;;21.90;99.90;;;;;;5074749;28;20184;-68
2021/12/15 12:38:34;;;;;;;24.30;5.63;;;21.90;99.90;;;;;;5073218;28;20263;-68
2021/12/15 12:41:06;;;;;;;28.63;4.40;;;22.00;99.90;;;;;;5057966;28;20575;-69
2021/12/15 12:43:46;;;;;;;19.93;4.70;;;22.00;99.90;;;;;;5056931;28;20183;-68
2021/12/15 12:46:42;;;;;;;36.13;5.73;;;21.90;99.90;;;;;;5077144;28;20301;-68
2021/12/15 12:59:22;;;;;;;26.67;6.10;;;21.90;99.90;;;;;;5074927;28;20221;-68
2021/12/15 13:00:54;;;;;;;24.90;4.80;;;21.90;99.90;;;;;;5073956;28;20198;-68
2021/12/15 13:03:45;;;;;;;29.87;5.47;;;21.90;99.90;;;;;;5073592;28;20206;-68
2021/12/15 13:06:15;;;;;;;28.60;5.47;;;21.90;99.90;;;;;;5074111;28;20253;-68
2021/12/15 13:08:50;;;;;;;27.83;4.57;;;21.90;99.90;;;;;;5074158;28;20579;-69
2021/12/15 13:11:25;;;;;;;29.08;5.82;;;21.90;99.90;;;;;;5072355;28;20411;-68
2021/12/15 13:14:13;;;;;;;29.97;4.87;;;21.80;99.90;;;;;;5073880;28;20175;-68
2021/12/15 13:16:58;;;;;;;27.47;5.17;;;21.90;99.90;;;;;;5073620;28;20380;-68
2021/12/15 13:19:26;;;;;;;23.20;5.40;;;22.00;99.90;;;;;;5074209;28;20255;-69
2021/12/15 13:22:18;;;;;;;29.97;5.10;;;21.90;99.90;;;;;;5073907;28;21088;-68
2021/12/15 13:31:08;;;;;;;29.50;5.23;;;21.90;99.90;;;;;;5068465;28;20589;-68
2021/12/15 13:33:37;;;;;;;24.53;4.53;;;21.90;99.90;;;;;;5072028;28;20205;-68
2021/12/15 13:36:08;;;;;;;28.53;4.73;;;21.90;99.90;;;;;;5072015;28;20183;-68
2021/12/15 13:38:40;;;;;;;29.43;4.97;;;21.90;99.90;;;;;;5072808;28;20740;-68
2021/12/15 13:44:02;;;;;;;27.53;5.10;;;22.00;99.90;;;;;;5023030;28;20188;-68
2021/12/15 13:46:29;;;;;;;28.07;5.33;;;22.00;99.90;;;;;;5073264;28;20210;-68
2021/12/15 13:49:01;;;;;;;28.93;4.87;;;22.00;99.90;;;;;;5073588;28;20549;-69
2021/12/15 13:52:01;;;;;;;29.40;4.60;;;22.00;99.90;;;;;;5073232;28;20239;-68
2021/12/15 13:54:37;;;;;;;21.20;4.00;;;21.90;99.90;;;;;;5073728;28;20238;-69
2021/12/15 13:57:45;;;;;;;30.07;4.37;;;21.90;99.90;;;;;;5076457;28;20182;-68
2021/12/15 14:00:19;;;;;;;20.93;4.93;;;22.00;99.90;;;;;;5056700;28;20191;-69
2021/12/15 14:03:01;;;;;;;27.70;5.40;;;22.10;99.90;;;;;;5072990;28;20301;-69
2021/12/15 14:05:33;;;;;;;24.57;4.23;;;22.00;99.90;;;;;;5073217;28;20172;-69
2021/12/15 14:08:07;;;;;;;22.93;4.53;;;22.00;99.90;;;;;;5073064;28;20588;-69
2021/12/15 14:10:34;;;;;;;29.23;4.30;;;22.00;99.90;;;;;;5078814;28;20171;-69
2021/12/15 14:13:05;;;;;;;22.27;4.10;;;21.90;99.90;;;;;;5075488;28;20186;-69
2021/12/15 14:15:38;;;;;;;26.73;4.30;;;21.90;99.90;;;;;;5073210;28;20183;-69
2021/12/15 14:18:24;;;;;;;17.60;3.90;;;21.80;99.90;;;;;;5072867;28;20260;-70
2021/12/15 14:21:20;;;;;;;30.00;4.27;;;21.90;99.90;;;;;;5066444;28;20179;-69
2021/12/15 14:23:51;;;;;;;24.77;4.80;;;22.00;99.90;;;;;;5042886;28;20653;-70
2021/12/15 14:26:28;;;;;;;22.87;4.67;;;22.00;99.90;;;;;;5068708;28;20889;-69
2021/12/15 14:28:58;;;;;;;29.13;4.53;;;22.00;99.90;;;;;;5075060;28;20171;-70
2021/12/15 14:31:30;;;;;;;25.17;3.77;;;22.10;99.90;;;;;;5072470;28;20243;-70
2021/12/15 14:34:01;;;;;;;26.20;4.50;;;22.10;99.90;;;;;;5076207;28;20171;-70
2021/12/15 14:36:32;;;;;;;21.67;4.10;;;22.00;99.90;;;;;;5072411;28;20320;-70